createdAt,value
2022-10-18T00:08:10.026Z,100.0
2022-10-18T00:18:10.031Z,100.0
2022-10-18T00:28:10.030Z,100.0
2022-10-18T00:48:10.044Z,100.0
2022-10-18T00:58:10.050Z,100.0
2022-10-18T01:08:10.054Z,100.0
2022-10-18T01:18:34.715Z,100.0
2022-10-18T01:28:10.049Z,100.0
2022-10-18T01:38:10.061Z,100.0
2022-10-18T01:48:10.069Z,100.0
2022-10-18T01:58:10.069Z,100.0
2022-10-18T02:08:22.777Z,100.0
2022-10-18T02:28:10.207Z,100.0
2022-10-18T02:38:10.077Z,100.0
2022-10-18T02:48:34.769Z,100.0
2022-10-18T02:58:10.090Z,100.0
2022-10-18T03:08:10.091Z,100.0
2022-10-18T03:28:10.095Z,100.0
2022-10-18T03:38:10.103Z,100.0
2022-10-18T03:48:10.114Z,100.0
2022-10-18T03:58:10.112Z,100.0
2022-10-18T04:08:10.110Z,100.0
2022-10-18T04:18:10.112Z,100.0
2022-10-18T04:28:10.114Z,100.0
2022-10-18T04:38:10.140Z,100.0
2022-10-18T04:48:10.123Z,100.0
2022-10-18T04:58:10.122Z,100.0
2022-10-18T05:08:10.136Z,100.0
2022-10-18T05:18:34.808Z,100.0
2022-10-18T05:28:34.054Z,100.0
2022-10-18T05:48:10.153Z,100.0
2022-10-18T05:58:10.147Z,100.0
2022-10-18T06:08:10.380Z,100.0
2022-10-18T06:18:10.156Z,100.0
2022-10-18T06:28:11.611Z,100.0
2022-10-18T06:38:34.857Z,100.0
2022-10-18T06:48:10.217Z,100.0
2022-10-18T07:08:34.838Z,100.0
2022-10-18T07:18:34.859Z,100.0
2022-10-18T07:28:34.912Z,100.0
2022-10-18T07:38:10.185Z,100.0
2022-10-18T07:48:10.247Z,100.0
2022-10-18T07:58:10.239Z,100.0
2022-10-18T08:08:10.337Z,100.0
2022-10-18T08:18:10.201Z,100.0
2022-10-18T08:28:10.200Z,100.0
2022-10-18T08:48:10.203Z,100.0
2022-10-18T08:58:10.210Z,100.0
2022-10-18T09:08:10.212Z,100.0
2022-10-18T09:18:10.222Z,100.0
2022-10-18T09:28:10.236Z,100.0
2022-10-18T09:38:10.231Z,100.0
2022-10-18T09:48:34.922Z,100.0
2022-10-18T09:58:10.239Z,98.5
2022-10-18T10:08:34.914Z,97.5
2022-10-18T10:18:10.250Z,96.0
2022-10-18T10:28:10.260Z,94.5
2022-10-18T10:38:10.260Z,93.5
2022-10-18T10:48:10.269Z,90.5
2022-10-18T10:58:10.274Z,88.0
2022-10-18T11:08:10.271Z,85.5
2022-10-18T11:18:10.282Z,85.0
2022-10-18T11:28:10.292Z,84.0
2022-10-18T11:38:10.294Z,82.0
2022-10-18T11:48:10.306Z,81.0
2022-10-18T11:58:10.301Z,80.0
2022-10-18T12:08:10.300Z,78.0
2022-10-18T12:18:10.314Z,77.5
2022-10-18T12:28:10.330Z,77.0
2022-10-18T12:38:10.320Z,75.5
2022-10-18T12:48:10.315Z,75.0
2022-10-18T12:58:10.330Z,75.0
2022-10-18T13:08:10.334Z,74.0
2022-10-18T13:18:10.340Z,73.0
2022-10-18T13:28:10.335Z,72.0
2022-10-18T13:38:10.343Z,72.0
2022-10-18T13:48:10.350Z,71.5
2022-10-18T13:58:10.346Z,69.0
2022-10-18T14:08:10.607Z,69.0
2022-10-18T14:18:10.355Z,69.0
2022-10-18T14:28:12.233Z,68.0
2022-10-18T14:38:10.366Z,68.0
2022-10-18T14:48:10.373Z,67.5
2022-10-18T14:58:10.371Z,68.0
2022-10-18T15:08:10.406Z,68.0
2022-10-18T15:18:10.376Z,67.0
2022-10-18T15:28:10.575Z,66.5
2022-10-18T15:38:10.392Z,67.0
2022-10-18T15:48:10.456Z,67.5
2022-10-18T15:58:10.392Z,68.0
2022-10-18T16:08:10.394Z,68.0
2022-10-18T16:28:10.398Z,69.5
2022-10-18T16:38:10.397Z,70.5
2022-10-18T16:48:10.404Z,71.5
2022-10-18T16:58:10.485Z,72.0
2022-10-18T17:08:10.419Z,72.5
2022-10-18T17:18:10.400Z,73.5
2022-10-18T17:28:10.402Z,74.0
2022-10-18T17:38:10.413Z,74.5
2022-10-18T17:48:10.413Z,75.0
2022-10-18T17:58:10.432Z,75.5
2022-10-18T18:08:10.410Z,76.0
2022-10-18T18:18:10.416Z,76.5
2022-10-18T18:28:10.415Z,77.0
2022-10-18T18:38:10.432Z,77.5
2022-10-18T18:48:10.422Z,78.0
2022-10-18T18:58:10.430Z,78.0
2022-10-18T19:08:10.437Z,78.5
2022-10-18T19:18:10.434Z,79.0
2022-10-18T19:28:10.429Z,79.0
2022-10-18T19:38:10.436Z,79.5
2022-10-18T19:48:13.354Z,80.0
2022-10-18T20:18:10.442Z,80.5
2022-10-18T20:38:10.450Z,81.5
2022-10-18T20:48:10.470Z,81.5
2022-10-18T21:08:10.458Z,82.0
2022-10-18T21:18:10.468Z,82.0
2022-10-18T21:38:35.144Z,83.0
2022-10-18T21:48:10.496Z,83.0
2022-10-18T21:58:10.465Z,83.0
2022-10-18T22:08:10.471Z,83.5
2022-10-18T22:18:10.471Z,83.5
2022-10-18T22:28:10.575Z,84.0
2022-10-18T22:48:35.248Z,84.0
2022-10-18T22:58:35.252Z,84.0
2022-10-18T23:08:10.587Z,84.0
2022-10-18T23:18:35.330Z,84.5
2022-10-18T23:28:10.603Z,84.5
2022-10-18T23:38:10.599Z,84.5
2022-10-18T23:48:10.597Z,84.5
2022-10-18T23:58:35.273Z,84.5
